Time;durP1;ratioP1;P1;durP2;ratioP2;P2;SDS_P1;SDS_P2;PMS_P1;PMS_P2;Temp;Humidity;BMP_temperature;BMP_pressure;BME280_temperature;BME280_humidity;BME280_pressure;Samples;Min_cycle;Max_cycle;Signal;HPM_P1;HPM_P2
2021/12/24 00:01:02;;;;;;;9.07;5.57;;;5.80;99.90;;;;;;5058949;28;20203;-70
2021/12/24 00:03:29;;;;;;;8.20;5.47;;;5.80;99.90;;;;;;5058235;28;20242;-71
2021/12/24 00:05:57;;;;;;;7.50;5.53;;;5.90;99.90;;;;;;5049206;28;20191;-69
2021/12/24 00:08:25;;;;;;;6.93;5.23;;;5.80;99.90;;;;;;5051347;28;20199;-69
2021/12/24 00:10:58;;;;;;;8.03;5.77;;;5.90;99.90;;;;;;5051601;28;20199;-69
2021/12/24 00:13:27;;;;;;;7.17;5.33;;;5.90;99.90;;;;;;5050688;28;20281;-67
2021/12/24 00:16:05;;;;;;;6.33;4.70;;;5.90;99.90;;;;;;5049098;28;20664;-67
2021/12/24 00:18:40;;;;;;;5.70;4.63;;;5.90;99.90;;;;;;5060381;28;20304;-69
2021/12/24 00:35:11;;;;;;;4.93;4.00;;;6.00;99.90;;;;;;5053272;28;20668;-69
2021/12/24 00:37:42;;;;;;;6.47;4.40;;;5.90;99.90;;;;;;5047785;28;20212;-69
2021/12/24 00:40:17;;;;;;;5.50;4.30;;;5.90;99.90;;;;;;5049975;28;20272;-69
2021/12/24 00:42:46;;;;;;;5.97;4.30;;;6.00;99.90;;;;;;5049159;28;20614;-69
2021/12/24 00:45:15;;;;;;;6.20;4.87;;;6.10;99.90;;;;;;5045009;28;20242;-69
2021/12/24 00:47:42;;;;;;;7.07;5.63;;;6.10;99.90;;;;;;5049544;28;20249;-69
2021/12/24 00:50:13;;;;;;;5.43;4.23;;;6.00;99.90;;;;;;5049971;28;20203;-69
2021/12/24 00:52:52;;;;;;;5.77;4.30;;;6.00;99.90;;;;;;5052938;28;20203;-69
2021/12/24 00:55:21;;;;;;;5.97;4.57;;;6.10;99.90;;;;;;5057329;28;20703;-69
2021/12/24 00:57:51;;;;;;;5.60;4.57;;;6.10;99.90;;;;;;5053619;28;20253;-69
2021/12/24 01:00:21;;;;;;;6.60;5.07;;;6.20;99.90;;;;;;5052763;28;20199;-69
2021/12/24 01:02:51;;;;;;;6.33;5.43;;;6.10;99.90;;;;;;5057849;28;20254;-69
2021/12/24 01:05:20;;;;;;;6.43;5.10;;;6.10;99.90;;;;;;5058588;28;20265;-69
2021/12/24 01:07:49;;;;;;;7.13;4.90;;;6.10;99.90;;;;;;5051588;28;20203;-69
2021/12/24 01:10:19;;;;;;;6.73;5.10;;;6.10;99.90;;;;;;5053674;28;20532;-69
2021/12/24 01:12:46;;;;;;;4.70;3.90;;;6.10;99.90;;;;;;5052976;28;20245;-69
2021/12/24 01:15:15;;;;;;;4.67;4.10;;;6.20;99.90;;;;;;5052796;28;20207;-69
2021/12/24 01:17:47;;;;;;;4.77;4.27;;;6.20;99.90;;;;;;5054176;28;20486;-69
2021/12/24 01:20:24;;;;;;;5.13;4.50;;;6.20;99.90;;;;;;5052398;28;20550;-69
2021/12/24 01:25:41;;;;;;;5.10;4.00;;;6.20;99.90;;;;;;5052734;28;20210;-69
2021/12/24 01:39:23;;;;;;;4.60;3.80;;;6.30;99.90;;;;;;5052105;28;20252;-69
2021/12/24 01:44:36;;;;;;;4.50;3.90;;;6.30;99.90;;;;;;5053652;28;20229;-69
2021/12/24 01:47:09;;;;;;;4.40;3.87;;;6.30;99.90;;;;;;5065730;28;20233;-69
2021/12/24 01:49:36;;;;;;;4.30;3.87;;;6.30;99.90;;;;;;5058342;28;20211;-69
2021/12/24 01:52:05;;;;;;;5.03;4.07;;;6.30;99.90;;;;;;5050293;28;20284;-69
2021/12/24 01:54:34;;;;;;;4.50;3.50;;;6.30;99.90;;;;;;5046920;28;20239;-69
2021/12/24 01:57:01;;;;;;;4.83;3.80;;;6.30;99.90;;;;;;5048618;28;20241;-69
2021/12/24 01:59:28;;;;;;;4.03;3.33;;;6.30;99.90;;;;;;5048876;28;20258;-69
2021/12/24 02:01:55;;;;;;;5.10;4.10;;;6.40;99.90;;;;;;5052116;28;20195;-69
2021/12/24 02:04:22;;;;;;;3.87;3.20;;;6.40;99.90;;;;;;5051830;28;20272;-69
2021/12/24 02:06:50;;;;;;;3.93;3.40;;;6.50;99.90;;;;;;5050613;28;20222;-69
2021/12/24 02:09:17;;;;;;;2.90;2.70;;;6.50;99.90;;;;;;5065876;28;20195;-69
2021/12/24 02:11:46;;;;;;;3.73;3.03;;;6.50;99.90;;;;;;5051313;28;20191;-69
2021/12/24 02:14:17;;;;;;;3.37;2.90;;;6.50;99.90;;;;;;5050746;28;20645;-69
2021/12/24 02:17:02;;;;;;;3.40;2.80;;;6.50;99.90;;;;;;5052255;28;20281;-69
2021/12/24 02:30:34;;;;;;;2.60;2.40;;;6.60;99.90;;;;;;5059006;28;20334;-69
2021/12/24 02:33:02;;;;;;;3.03;2.73;;;6.60;99.90;;;;;;5050265;28;20199;-69
2021/12/24 02:35:30;;;;;;;4.43;2.70;;;6.60;99.90;;;;;;5052626;28;21025;-69
2021/12/24 02:37:59;;;;;;;2.47;2.27;;;6.70;99.90;;;;;;5051098;28;20260;-69
2021/12/24 02:40:26;;;;;;;2.60;2.40;;;6.70;99.90;;;;;;5051318;28;20203;-69
2021/12/24 02:42:55;;;;;;;3.10;2.57;;;6.70;99.90;;;;;;5050701;28;20260;-69
2021/12/24 02:45:24;;;;;;;3.03;2.50;;;6.70;99.90;;;;;;5051783;28;20249;-69
2021/12/24 02:48:14;;;;;;;2.47;2.27;;;6.80;99.90;;;;;;5051960;28;20199;-69
2021/12/24 02:56:14;;;;;;;2.40;2.20;;;6.80;99.90;;;;;;5049301;28;20260;-69
2021/12/24 02:58:42;;;;;;;3.43;2.47;;;6.90;99.90;;;;;;5049337;28;20199;-69
2021/12/24 03:01:11;;;;;;;2.93;2.30;;;6.80;99.90;;;;;;5051500;28;20206;-69
2021/12/24 03:03:38;;;;;;;2.40;2.20;;;6.80;99.90;;;;;;5063709;28;20230;-69
2021/12/24 03:06:05;;;;;;;2.20;2.00;;;6.90;99.90;;;;;;5049810;28;20199;-69
2021/12/24 03:08:34;;;;;;;2.90;2.63;;;6.90;99.90;;;;;;5050258;28;20226;-69
2021/12/24 03:11:02;;;;;;;2.47;2.27;;;6.90;99.90;;;;;;5051506;28;20199;-69
2021/12/24 03:13:29;;;;;;;2.60;2.40;;;6.90;99.90;;;;;;5051578;28;20264;-69
2021/12/24 03:15:58;;;;;;;2.57;2.37;;;6.90;99.90;;;;;;5048948;28;20248;-69
2021/12/24 03:18:28;;;;;;;2.43;2.23;;;6.90;99.90;;;;;;5051978;28;20214;-69
2021/12/24 03:21:03;;;;;;;2.37;2.17;;;7.00;99.90;;;;;;5051414;28;20611;-69
2021/12/24 03:23:37;;;;;;;3.40;2.63;;;7.00;99.90;;;;;;5054194;28;20699;-69
2021/12/24 03:26:06;;;;;;;4.00;2.80;;;7.00;99.90;;;;;;5052636;28;20249;-69
2021/12/24 03:28:33;;;;;;;3.20;2.90;;;7.00;99.90;;;;;;5049199;28;20207;-69
2021/12/24 03:31:01;;;;;;;3.97;2.90;;;7.00;99.90;;;;;;5051001;28;20230;-69
2021/12/24 03:33:28;;;;;;;3.17;2.90;;;7.00;99.90;;;;;;5050459;28;20657;-67
2021/12/24 03:35:55;;;;;;;3.40;2.97;;;7.10;99.90;;;;;;5051709;28;20257;-68
2021/12/24 03:38:23;;;;;;;4.97;2.93;;;7.00;99.90;;;;;;5048983;28;20199;-67
2021/12/24 03:40:50;;;;;;;3.23;2.93;;;7.00;99.90;;;;;;5049610;28;20589;-67
2021/12/24 03:43:18;;;;;;;3.43;3.07;;;7.10;99.90;;;;;;5049303;28;20609;-67
2021/12/24 03:45:56;;;;;;;3.40;3.10;;;7.10;99.90;;;;;;5035202;28;20207;-67
2021/12/24 03:48:27;;;;;;;2.97;2.77;;;7.00;99.90;;;;;;5049702;28;20210;-67
2021/12/24 03:51:01;;;;;;;3.00;2.80;;;7.00;99.90;;;;;;5050489;28;20230;-67
2021/12/24 03:56:15;;;;;;;3.47;3.17;;;7.10;99.90;;;;;;5050559;28;20253;-67
2021/12/24 03:58:43;;;;;;;2.77;2.57;;;7.10;99.90;;;;;;5049408;28;20226;-67
2021/12/24 04:01:11;;;;;;;3.60;3.30;;;7.10;99.90;;;;;;5049092;28;20203;-67
2021/12/24 04:03:38;;;;;;;4.03;3.37;;;7.20;99.90;;;;;;5055714;28;20680;-67
2021/12/24 04:06:05;;;;;;;5.00;3.30;;;7.20;99.90;;;;;;5049549;28;20206;-78
2021/12/24 04:08:32;;;;;;;3.93;3.23;;;7.20;99.90;;;;;;5051740;28;20245;-67
2021/12/24 04:10:59;;;;;;;3.93;3.57;;;7.20;99.90;;;;;;5050167;28;20227;-67
2021/12/24 04:13:26;;;;;;;4.13;3.53;;;7.20;99.90;;;;;;5049023;28;20226;-67
2021/12/24 04:15:54;;;;;;;4.13;3.73;;;7.30;99.90;;;;;;5049380;28;20665;-67
2021/12/24 04:18:35;;;;;;;4.43;3.53;;;7.30;99.90;;;;;;5050803;28;20629;-67
2021/12/24 04:26:34;;;;;;;5.50;4.17;;;7.30;99.90;;;;;;5039357;28;20198;-67
2021/12/24 04:29:01;;;;;;;6.40;4.60;;;7.30;99.90;;;;;;5053490;28;20202;-67
2021/12/24 04:31:38;;;;;;;5.23;4.40;;;7.30;99.90;;;;;;5054110;28;20591;-67
2021/12/24 04:34:06;;;;;;;6.03;4.97;;;7.30;99.90;;;;;;5054118;28;20211;-67
2021/12/24 04:36:47;;;;;;;4.90;4.20;;;7.30;99.90;;;;;;5054560;28;20250;-67
2021/12/24 05:01:09;;;;;;;3.70;2.97;;;7.50;99.90;;;;;;5051826;28;20198;-67
2021/12/24 05:01:34;;;;;;;5.63;3.40;;;7.50;99.90;;;;;;5054735;28;20229;-67
2021/12/24 05:04:05;;;;;;;3.30;3.00;;;7.60;99.90;;;;;;5053352;28;20397;-67
2021/12/24 05:06:36;;;;;;;4.20;3.80;;;7.50;99.90;;;;;;5052609;28;20203;-67
2021/12/24 05:09:08;;;;;;;4.00;3.17;;;7.60;99.90;;;;;;5054776;28;20207;-67
2021/12/24 05:11:36;;;;;;;3.97;3.57;;;7.60;99.90;;;;;;5054158;28;20211;-67
2021/12/24 05:14:05;;;;;;;4.30;3.83;;;7.60;99.90;;;;;;5053051;28;20227;-67
2021/12/24 05:16:42;;;;;;;5.80;4.20;;;7.60;99.90;;;;;;5071441;28;20194;-67
2021/12/24 05:21:57;;;;;;;5.73;4.93;;;7.80;99.90;;;;;;5034819;28;20205;-67
2021/12/24 05:24:30;;;;;;;6.30;5.10;;;7.80;99.90;;;;;;5053780;28;20258;-67
2021/12/24 05:27:00;;;;;;;7.80;5.67;;;7.80;99.90;;;;;;5039000;28;20203;-67
2021/12/24 05:29:27;;;;;;;7.20;5.40;;;7.80;99.90;;;;;;5052792;28;20527;-67
2021/12/24 05:31:54;;;;;;;8.47;6.30;;;7.80;99.90;;;;;;5053569;28;20199;-67
2021/12/24 05:34:22;;;;;;;15.83;9.27;;;7.80;99.90;;;;;;5054140;28;20203;-67
2021/12/24 05:36:51;;;;;;;7.27;5.10;;;7.80;99.90;;;;;;5053531;28;20202;-67
2021/12/24 05:39:20;;;;;;;6.90;5.07;;;7.90;99.90;;;;;;5063895;28;20202;-67
2021/12/24 05:41:47;;;;;;;6.63;4.83;;;7.90;99.90;;;;;;5059868;28;20211;-67
2021/12/24 05:44:17;;;;;;;6.23;4.80;;;7.90;99.90;;;;;;5051882;28;20227;-67
2021/12/24 05:46:45;;;;;;;6.47;4.83;;;7.90;99.90;;;;;;5052185;28;20199;-67
2021/12/24 05:49:12;;;;;;;5.93;3.93;;;7.90;99.90;;;;;;5041617;28;20218;-67
2021/12/24 05:51:41;;;;;;;6.17;4.70;;;8.00;99.90;;;;;;5054894;28;20207;-67
2021/12/24 05:54:08;;;;;;;6.17;4.77;;;8.00;99.90;;;;;;5053511;28;20234;-67
2021/12/24 05:56:35;;;;;;;6.87;4.43;;;8.10;99.90;;;;;;5056488;28;20199;-68
2021/12/24 05:59:02;;;;;;;5.67;4.07;;;8.10;99.90;;;;;;5054112;28;20649;-67
2021/12/24 06:01:29;;;;;;;5.53;4.13;;;8.00;99.90;;;;;;5053802;28;20316;-67
2021/12/24 06:03:56;;;;;;;5.40;4.03;;;8.10;99.90;;;;;;5058941;28;20239;-67
2021/12/24 06:06:23;;;;;;;5.47;4.10;;;8.20;99.90;;;;;;5062212;28;20199;-67
2021/12/24 06:08:52;;;;;;;6.20;4.20;;;8.20;99.90;;;;;;5055578;28;20258;-67
2021/12/24 06:11:19;;;;;;;6.20;4.23;;;8.30;99.90;;;;;;5056228;28;20898;-67
2021/12/24 06:13:51;;;;;;;5.67;4.10;;;8.30;99.90;;;;;;5048838;28;20588;-67
2021/12/24 06:16:18;;;;;;;4.87;3.90;;;8.40;99.90;;;;;;5050890;28;20214;-67
2021/12/24 06:18:46;;;;;;;5.03;3.87;;;8.40;99.90;;;;;;5051256;28;20210;-67
2021/12/24 06:21:13;;;;;;;5.50;4.10;;;8.40;99.90;;;;;;5054169;28;20265;-67
2021/12/24 06:23:41;;;;;;;5.37;3.70;;;8.50;99.90;;;;;;5049910;28;20260;-67
2021/12/24 06:26:10;;;;;;;4.10;3.20;;;8.50;99.90;;;;;;5053686;28;20283;-67
2021/12/24 06:28:38;;;;;;;6.07;4.07;;;8.60;99.90;;;;;;5052647;28;20652;-67
2021/12/24 06:31:05;;;;;;;4.37;3.40;;;8.50;99.90;;;;;;5056786;28;20257;-67
2021/12/24 06:33:32;;;;;;;5.17;3.83;;;8.50;99.90;;;;;;5052037;28;20206;-67
2021/12/24 06:35:59;;;;;;;5.27;3.90;;;8.50;99.90;;;;;;5059736;28;20589;-67
2021/12/24 06:38:27;;;;;;;6.30;4.47;;;8.50;99.90;;;;;;5056087;28;20623;-67
2021/12/24 06:40:54;;;;;;;6.70;4.43;;;8.50;99.90;;;;;;5053063;28;20195;-67
2021/12/24 06:43:23;;;;;;;5.50;4.03;;;8.40;99.90;;;;;;5056563;28;20237;-67
2021/12/24 06:45:50;;;;;;;5.47;3.37;;;8.50;99.90;;;;;;5049594;28;20223;-67
2021/12/24 06:48:18;;;;;;;3.50;3.10;;;8.50;99.90;;;;;;5061558;28;20248;-67
2021/12/24 06:50:45;;;;;;;3.63;3.27;;;8.50;99.90;;;;;;5054004;28;20200;-67
2021/12/24 06:53:13;;;;;;;9.03;4.03;;;8.50;99.90;;;;;;5043844;28;20207;-67
2021/12/24 06:55:40;;;;;;;5.10;3.03;;;8.60;99.90;;;;;;5053850;28;20751;-67
2021/12/24 06:58:07;;;;;;;4.47;3.23;;;8.60;99.90;;;;;;5052571;28;20637;-68
2021/12/24 07:00:36;;;;;;;3.30;2.70;;;8.70;99.90;;;;;;5052249;28;20272;-68
2021/12/24 07:03:03;;;;;;;3.20;2.83;;;8.80;99.90;;;;;;5050913;28;20215;-67
2021/12/24 07:05:30;;;;;;;4.57;3.60;;;8.80;99.90;;;;;;5056630;28;20226;-72
2021/12/24 07:07:57;;;;;;;5.50;3.30;;;8.90;99.90;;;;;;5052537;28;20260;-69
2021/12/24 07:10:24;;;;;;;4.63;3.40;;;8.90;99.90;;;;;;5063573;28;20240;-69
2021/12/24 07:12:51;;;;;;;4.77;3.50;;;8.80;99.90;;;;;;5051839;28;20593;-69
2021/12/24 07:15:18;;;;;;;5.40;3.40;;;8.90;99.90;;;;;;5056248;28;20242;-69
2021/12/24 07:17:47;;;;;;;5.80;4.00;;;8.90;99.90;;;;;;5050281;28;20203;-69
2021/12/24 07:20:14;;;;;;;6.30;4.10;;;8.90;99.90;;;;;;5051468;28;20549;-69
2021/12/24 07:22:41;;;;;;;5.53;3.93;;;9.00;99.90;;;;;;5050434;28;20202;-69
2021/12/24 07:25:09;;;;;;;6.07;3.83;;;9.00;99.90;;;;;;5055377;28;20365;-70
2021/12/24 07:27:37;;;;;;;6.63;4.30;;;9.00;99.90;;;;;;5050427;28;20214;-70
2021/12/24 07:30:08;;;;;;;6.27;4.37;;;9.00;99.90;;;;;;5056399;28;20664;-69
2021/12/24 07:32:35;;;;;;;6.93;4.37;;;9.00;99.90;;;;;;5058734;28;20206;-69
2021/12/24 07:35:04;;;;;;;6.90;4.20;;;9.00;99.90;;;;;;5052433;28;20257;-69
2021/12/24 07:37:31;;;;;;;5.97;4.30;;;9.00;99.90;;;;;;5051193;28;20203;-69
2021/12/24 07:39:58;;;;;;;6.83;4.40;;;9.10;99.90;;;;;;5051715;28;20195;-69
2021/12/24 07:42:26;;;;;;;7.00;4.67;;;9.10;99.90;;;;;;5064206;28;20655;-69
2021/12/24 07:44:53;;;;;;;6.90;5.17;;;9.10;99.90;;;;;;5056978;28;20250;-69
2021/12/24 07:47:27;;;;;;;8.00;5.13;;;9.10;99.90;;;;;;5052954;28;20612;-69
2021/12/24 07:50:01;;;;;;;8.53;5.53;;;9.10;99.90;;;;;;5051537;28;20281;-69
2021/12/24 07:52:29;;;;;;;8.80;5.77;;;9.10;99.90;;;;;;5050357;28;20675;-69
2021/12/24 07:54:57;;;;;;;7.27;4.83;;;9.10;99.90;;;;;;5050094;28;20202;-69
2021/12/24 07:57:25;;;;;;;9.83;5.83;;;9.10;99.90;;;;;;5052913;28;20213;-70
2021/12/24 07:59:52;;;;;;;8.10;5.03;;;9.10;99.90;;;;;;5050832;28;20202;-69
2021/12/24 08:02:25;;;;;;;9.90;6.43;;;9.20;99.90;;;;;;5053578;28;20199;-69
2021/12/24 08:04:53;;;;;;;9.30;5.60;;;9.20;99.90;;;;;;5050456;28;20581;-69
2021/12/24 08:07:21;;;;;;;10.53;6.23;;;9.30;99.90;;;;;;5054397;28;20207;-69
2021/12/24 08:09:50;;;;;;;11.90;6.57;;;9.30;99.90;;;;;;5050862;28;20225;-69
2021/12/24 08:12:18;;;;;;;8.97;5.77;;;9.20;99.90;;;;;;5054677;28;20199;-77
2021/12/24 08:14:45;;;;;;;9.83;5.83;;;9.20;99.90;;;;;;5048269;28;20641;-69
2021/12/24 08:17:13;;;;;;;10.77;6.50;;;9.20;99.90;;;;;;5051026;28;20288;-71
2021/12/24 08:19:40;;;;;;;15.00;8.27;;;9.20;99.90;;;;;;5056939;28;20203;-72
2021/12/24 08:22:08;;;;;;;13.07;6.93;;;9.30;99.90;;;;;;5053132;28;20245;-71
2021/12/24 08:24:35;;;;;;;12.90;7.40;;;9.30;99.90;;;;;;5055792;28;20238;-71
2021/12/24 08:27:04;;;;;;;11.77;7.60;;;9.30;99.90;;;;;;5056393;28;20202;-72
2021/12/24 08:29:32;;;;;;;12.07;7.30;;;9.30;99.90;;;;;;5049023;28;20533;-72
2021/12/24 08:31:59;;;;;;;11.93;7.40;;;9.20;99.90;;;;;;5047282;28;20206;-71
2021/12/24 08:34:26;;;;;;;16.20;9.10;;;9.20;99.90;;;;;;5056686;28;20268;-71
2021/12/24 08:36:54;;;;;;;18.07;9.60;;;9.30;99.90;;;;;;5052452;28;20202;-71
2021/12/24 08:39:22;;;;;;;16.67;8.63;;;9.20;99.90;;;;;;5051026;28;20203;-71
2021/12/24 08:41:54;;;;;;;15.17;8.80;;;9.30;99.90;;;;;;5044651;28;20305;-72
2021/12/24 08:44:23;;;;;;;17.53;10.23;;;9.30;99.90;;;;;;5048611;28;20213;-72
2021/12/24 08:46:50;;;;;;;15.50;8.77;;;9.30;99.90;;;;;;5050103;28;20218;-71
2021/12/24 08:49:18;;;;;;;17.37;8.80;;;9.30;99.90;;;;;;5048956;28;20238;-72
2021/12/24 08:51:45;;;;;;;17.77;10.00;;;9.40;99.90;;;;;;5049973;28;20554;-71
2021/12/24 08:54:12;;;;;;;16.57;9.30;;;9.40;99.90;;;;;;5052733;28;20202;-71
2021/12/24 08:56:39;;;;;;;17.40;9.10;;;9.40;99.90;;;;;;5049816;28;20243;-72
2021/12/24 08:59:07;;;;;;;16.53;9.10;;;9.40;99.90;;;;;;5050455;28;20649;-72
2021/12/24 09:01:35;;;;;;;15.40;8.30;;;9.40;99.90;;;;;;5050463;28;20199;-71
2021/12/24 09:04:02;;;;;;;20.53;9.90;;;9.50;99.90;;;;;;5051934;28;20723;-71
2021/12/24 09:06:29;;;;;;;16.80;9.67;;;9.50;99.90;;;;;;5047976;28;20688;-71
2021/12/24 09:08:56;;;;;;;16.83;9.70;;;9.50;99.90;;;;;;5052723;28;20270;-71
2021/12/24 09:11:23;;;;;;;16.40;9.67;;;9.50;99.90;;;;;;5058192;28;20199;-73
2021/12/24 09:13:50;;;;;;;17.67;10.37;;;9.50;99.90;;;;;;5050787;28;20196;-73
2021/12/24 09:16:17;;;;;;;15.33;9.37;;;9.50;99.90;;;;;;5056126;28;20203;-73
2021/12/24 09:18:49;;;;;;;16.43;9.67;;;9.50;99.90;;;;;;5055696;28;20690;-73
2021/12/24 09:21:19;;;;;;;17.17;9.50;;;9.50;99.90;;;;;;5058048;28;20268;-73
2021/12/24 09:23:49;;;;;;;19.40;10.73;;;9.50;99.90;;;;;;5056014;28;20701;-73
2021/12/24 09:26:23;;;;;;;18.90;9.70;;;9.50;99.90;;;;;;5047640;28;20273;-71
2021/12/24 09:28:50;;;;;;;17.83;9.63;;;9.50;99.90;;;;;;5053880;28;20206;-72
2021/12/24 09:31:17;;;;;;;16.40;9.93;;;9.50;99.90;;;;;;5054288;28;20740;-71
2021/12/24 09:33:45;;;;;;;19.57;9.90;;;9.50;99.90;;;;;;5050043;28;20258;-72
2021/12/24 09:36:12;;;;;;;21.03;10.47;;;9.40;99.90;;;;;;5050980;28;20667;-72
2021/12/24 09:38:39;;;;;;;18.10;9.47;;;9.40;99.90;;;;;;5055822;28;20660;-71
2021/12/24 09:41:07;;;;;;;16.87;9.10;;;9.40;99.90;;;;;;5059423;28;20199;-71
2021/12/24 09:43:34;;;;;;;14.43;8.67;;;9.40;99.90;;;;;;5052070;28;20199;-72
2021/12/24 09:46:01;;;;;;;14.20;8.27;;;9.40;99.90;;;;;;5060762;28;20311;-72
2021/12/24 09:48:28;;;;;;;15.80;8.87;;;9.40;99.90;;;;;;5050097;28;20203;-71
2021/12/24 09:50:56;;;;;;;15.03;8.50;;;9.40;99.90;;;;;;5049014;28;20253;-72
2021/12/24 09:53:23;;;;;;;14.60;8.63;;;9.40;99.90;;;;;;5049757;28;20203;-71
2021/12/24 09:55:50;;;;;;;16.53;8.47;;;9.50;99.90;;;;;;5054570;28;20208;-71
2021/12/24 09:58:17;;;;;;;16.00;8.93;;;9.50;99.90;;;;;;5056721;28;20198;-73
2021/12/24 10:00:45;;;;;;;16.77;8.63;;;9.40;99.90;;;;;;5057960;28;20199;-71
2021/12/24 10:03:27;;;;;;;14.10;7.83;;;9.40;99.90;;;;;;5051559;28;20195;-71
2021/12/24 10:05:57;;;;;;;15.60;7.87;;;9.40;99.90;;;;;;5054451;28;20255;-72
2021/12/24 10:08:26;;;;;;;15.63;8.23;;;9.50;99.90;;;;;;5048527;28;20196;-72
2021/12/24 10:11:01;;;;;;;14.77;7.60;;;9.50;99.90;;;;;;5052265;28;21598;-72
2021/12/24 10:13:34;;;;;;;13.60;7.23;;;9.60;99.90;;;;;;5054680;28;20205;-72
2021/12/24 10:16:03;;;;;;;12.63;7.00;;;9.60;99.90;;;;;;5056157;28;20234;-72
2021/12/24 10:18:36;;;;;;;13.43;6.47;;;9.60;99.90;;;;;;5054391;28;20289;-72
2021/12/24 10:21:08;;;;;;;11.07;6.33;;;9.50;99.90;;;;;;5047967;28;20269;-71
2021/12/24 10:23:40;;;;;;;10.53;6.60;;;9.60;99.90;;;;;;5055159;28;20654;-72
2021/12/24 10:26:29;;;;;;;11.13;6.37;;;9.70;99.90;;;;;;5051362;28;20263;-67
2021/12/24 10:29:03;;;;;;;11.17;6.30;;;9.70;99.90;;;;;;5042950;28;20208;-78
2021/12/24 10:31:33;;;;;;;11.00;6.53;;;9.70;99.90;;;;;;5051271;28;20207;-79
2021/12/24 10:34:16;;;;;;;15.30;7.50;;;9.70;99.90;;;;;;5057784;28;20192;-78
2021/12/24 10:37:07;;;;;;;13.40;7.33;;;9.80;99.90;;;;;;5052354;28;20665;-79
2021/12/24 10:39:46;;;;;;;11.70;6.37;;;10.00;99.90;;;;;;5044463;28;20661;-79
2021/12/24 10:42:16;;;;;;;10.47;5.70;;;10.00;99.90;;;;;;5060252;28;20256;-78
2021/12/24 10:44:45;;;;;;;12.50;6.20;;;10.00;99.90;;;;;;5054075;28;20195;-78
2021/12/24 10:47:16;;;;;;;10.90;6.47;;;9.90;99.90;;;;;;5058606;28;20229;-78
2021/12/24 10:50:04;;;;;;;11.07;7.00;;;9.90;99.90;;;;;;5052622;28;20199;-78
2021/12/24 10:55:21;;;;;;;11.50;6.40;;;9.90;99.90;;;;;;5048242;28;20206;-78
2021/12/24 10:57:51;;;;;;;15.43;6.87;;;10.00;99.90;;;;;;5055999;28;20226;-78
2021/12/24 11:00:23;;;;;;;14.13;6.57;;;10.10;99.90;;;;;;5052255;28;20302;-78
2021/12/24 11:02:53;;;;;;;10.43;6.43;;;10.20;99.90;;;;;;5051600;28;20231;-78
2021/12/24 11:05:36;;;;;;;10.80;6.57;;;10.20;99.90;;;;;;5063360;28;20213;-78
2021/12/24 11:08:07;;;;;;;10.33;5.27;;;10.20;99.90;;;;;;5056105;28;20269;-78
2021/12/24 11:10:38;;;;;;;9.23;5.43;;;10.10;99.90;;;;;;5047728;28;20241;-79
2021/12/24 11:13:09;;;;;;;9.10;5.67;;;10.10;99.90;;;;;;5055501;28;20203;-79
2021/12/24 11:15:39;;;;;;;10.43;5.57;;;10.10;99.90;;;;;;5056937;28;20206;-78
2021/12/24 11:18:09;;;;;;;12.47;5.53;;;10.10;99.90;;;;;;5059528;28;20611;-77
2021/12/24 11:20:37;;;;;;;10.07;6.17;;;10.00;99.90;;;;;;5050925;28;20203;-77
2021/12/24 11:23:09;;;;;;;9.17;5.70;;;10.00;99.90;;;;;;5052516;28;20221;-78
2021/12/24 11:25:38;;;;;;;10.20;5.77;;;10.00;99.90;;;;;;5049888;28;20205;-78
2021/12/24 11:28:06;;;;;;;9.10;5.60;;;10.00;99.90;;;;;;5058982;28;20206;-79
2021/12/24 11:30:37;;;;;;;13.00;5.67;;;9.90;99.90;;;;;;5052533;28;20238;-79
2021/12/24 11:33:04;;;;;;;13.53;6.63;;;10.00;99.90;;;;;;5047798;28;20203;-79
2021/12/24 11:35:33;;;;;;;15.23;6.23;;;10.00;99.90;;;;;;5050081;28;20258;-80
2021/12/24 11:38:02;;;;;;;10.33;5.33;;;9.90;99.90;;;;;;5049125;28;20690;-80
2021/12/24 11:40:30;;;;;;;9.57;5.47;;;9.90;99.90;;;;;;5063428;28;20206;-68
2021/12/24 11:43:00;;;;;;;12.53;5.83;;;9.90;99.90;;;;;;5060079;28;20195;-68
2021/12/24 11:45:30;;;;;;;9.57;5.97;;;9.80;99.90;;;;;;5050626;28;20290;-68
2021/12/24 11:47:57;;;;;;;11.23;5.57;;;9.80;99.90;;;;;;5051147;28;20227;-68
2021/12/24 11:50:27;;;;;;;9.67;5.40;;;9.70;99.90;;;;;;5050590;28;20306;-68
2021/12/24 11:52:58;;;;;;;12.20;5.73;;;9.80;99.90;;;;;;5050888;28;20203;-68
2021/12/24 11:55:28;;;;;;;10.67;5.63;;;9.70;99.90;;;;;;5050030;28;20199;-68
2021/12/24 11:57:59;;;;;;;14.90;6.30;;;9.60;99.90;;;;;;5049238;28;20645;-68
2021/12/24 12:00:30;;;;;;;12.37;5.93;;;9.60;99.90;;;;;;5050383;28;20680;-68
2021/12/24 12:02:58;;;;;;;11.77;5.93;;;9.60;99.90;;;;;;5051231;28;20637;-68
2021/12/24 12:05:32;;;;;;;10.30;6.83;;;9.60;99.90;;;;;;5051193;28;20253;-68
2021/12/24 12:08:38;;;;;;;8.97;4.97;;;9.60;99.90;;;;;;5034984;28;20238;-68
2021/12/24 12:11:18;;;;;;;9.20;5.40;;;9.60;99.90;;;;;;5031299;28;20294;-68
2021/12/24 12:13:50;;;;;;;10.63;5.73;;;9.60;99.90;;;;;;5044388;28;20707;-68
2021/12/24 12:16:20;;;;;;;9.50;5.60;;;9.60;99.90;;;;;;5052388;28;20195;-68
2021/12/24 12:19:00;;;;;;;9.30;5.47;;;9.60;99.90;;;;;;5051032;28;20203;-68
2021/12/24 12:21:39;;;;;;;11.43;6.03;;;9.60;99.90;;;;;;5035996;28;20212;-67
2021/12/24 12:27:02;;;;;;;11.20;5.00;;;9.50;99.90;;;;;;5049511;28;20602;-68
2021/12/24 12:29:43;;;;;;;13.07;6.27;;;9.50;99.90;;;;;;5049654;28;20206;-68
2021/12/24 12:32:47;;;;;;;10.30;5.47;;;9.50;99.90;;;;;;5048159;28;20782;-68
2021/12/24 12:35:16;;;;;;;6.37;2.97;;;9.40;99.90;;;;;;5043765;28;20202;-68
2021/12/24 12:37:46;;;;;;;1.50;1.20;;;9.10;99.90;;;;;;5049287;28;20207;-68
2021/12/24 12:40:35;;;;;;;1.53;1.40;;;8.00;99.90;;;;;;5047396;28;20412;-67
2021/12/24 12:43:13;;;;;;;2.20;1.30;;;7.80;99.90;;;;;;5050183;28;20202;-68
2021/12/24 12:46:03;;;;;;;0.93;0.90;;;7.60;99.90;;;;;;5049226;28;20249;-68
2021/12/24 12:48:51;;;;;;;1.40;0.63;;;7.30;99.90;;;;;;5055681;28;20244;-67
2021/12/24 12:51:23;;;;;;;1.37;0.87;;;7.00;99.90;;;;;;5049828;28;20669;-67
2021/12/24 12:53:52;;;;;;;0.57;0.57;;;6.90;99.90;;;;;;5058692;28;20204;-67
2021/12/24 12:56:27;;;;;;;0.40;0.40;;;6.70;99.90;;;;;;5055738;28;20637;-67
2021/12/24 12:58:59;;;;;;;1.13;0.70;;;6.50;99.90;;;;;;5063816;28;20259;-67
2021/12/24 13:01:28;;;;;;;0.40;0.40;;;6.40;99.90;;;;;;5058001;28;20207;-67
2021/12/24 13:04:16;;;;;;;0.83;0.50;;;6.30;99.90;;;;;;5047333;28;20203;-67
2021/12/24 13:06:55;;;;;;;0.77;0.77;;;6.20;99.90;;;;;;5052980;28;20622;-67
2021/12/24 13:09:32;;;;;;;1.10;0.80;;;6.20;99.90;;;;;;5056648;28;20206;-67
2021/12/24 13:12:03;;;;;;;1.57;1.27;;;6.20;99.90;;;;;;5053945;28;20210;-67
2021/12/24 13:14:32;;;;;;;0.93;0.93;;;6.20;99.90;;;;;;5051820;28;20207;-68
2021/12/24 13:17:19;;;;;;;1.40;1.23;;;6.10;99.90;;;;;;5050488;28;20478;-67
2021/12/24 13:22:42;;;;;;;1.30;1.20;;;6.10;99.90;;;;;;4989351;28;20560;-67
2021/12/24 13:25:13;;;;;;;0.97;0.90;;;6.10;99.90;;;;;;5050419;28;20215;-67
2021/12/24 13:27:44;;;;;;;0.40;0.40;;;6.10;99.90;;;;;;5051216;28;20222;-67
2021/12/24 13:30:14;;;;;;;0.60;0.53;;;5.90;99.90;;;;;;5061122;28;20211;-67
2021/12/24 13:32:46;;;;;;;0.73;0.67;;;5.80;99.90;;;;;;5055463;28;20217;-67
2021/12/24 13:35:13;;;;;;;1.20;0.57;;;5.80;99.90;;;;;;5054387;28;20315;-67
2021/12/24 13:37:45;;;;;;;1.03;0.93;;;5.70;99.90;;;;;;5047271;28;20207;-67
2021/12/24 13:40:14;;;;;;;1.20;1.10;;;5.70;99.90;;;;;;5060232;28;20213;-67
2021/12/24 13:42:45;;;;;;;0.63;0.60;;;5.70;99.90;;;;;;5053052;28;20292;-67
2021/12/24 13:45:12;;;;;;;2.03;1.37;;;5.60;99.90;;;;;;5049861;28;20282;-67
2021/12/24 13:55:59;;;;;;;1.50;0.90;;;5.50;99.90;;;;;;5056110;28;20713;-69
2021/12/24 13:58:26;;;;;;;0.63;0.63;;;5.50;99.90;;;;;;5060150;28;20203;-69
2021/12/24 14:00:55;;;;;;;1.00;0.87;;;5.50;99.90;;;;;;5054499;28;20206;-69
2021/12/24 14:03:28;;;;;;;1.20;1.00;;;5.60;99.90;;;;;;5059376;28;20268;-69
2021/12/24 14:05:58;;;;;;;1.00;1.00;;;5.60;99.90;;;;;;5054986;28;20661;-69
2021/12/24 14:08:32;;;;;;;2.40;1.27;;;5.50;99.90;;;;;;5052608;28;20218;-69
2021/12/24 14:11:07;;;;;;;2.20;1.53;;;5.50;99.90;;;;;;5051331;28;20294;-69
2021/12/24 14:13:38;;;;;;;1.50;1.37;;;5.40;99.90;;;;;;5059481;28;20198;-68
2021/12/24 14:16:18;;;;;;;1.30;1.13;;;5.30;99.90;;;;;;5054218;28;20321;-68
2021/12/24 14:18:53;;;;;;;0.50;0.50;;;5.30;99.90;;;;;;5055988;28;20561;-68
2021/12/24 14:21:48;;;;;;;0.40;0.40;;;5.00;99.90;;;;;;5057062;28;20713;-68
2021/12/24 14:24:21;;;;;;;0.83;0.40;;;4.90;99.90;;;;;;5054058;28;20206;-68
2021/12/24 14:26:53;;;;;;;0.80;0.50;;;4.90;99.90;;;;;;5058571;28;20231;-68
2021/12/24 14:29:32;;;;;;;0.77;0.40;;;4.80;99.90;;;;;;5051251;28;20207;-68
2021/12/24 14:32:01;;;;;;;0.67;0.40;;;4.80;99.90;;;;;;5052923;28;20194;-68
2021/12/24 14:34:35;;;;;;;0.43;0.43;;;4.70;99.90;;;;;;5055472;28;20213;-68
2021/12/24 14:37:05;;;;;;;0.30;0.30;;;4.70;99.90;;;;;;5062488;28;20257;-68
2021/12/24 14:39:42;;;;;;;0.40;0.40;;;4.60;99.90;;;;;;5057414;28;20683;-68
2021/12/24 14:42:22;;;;;;;0.30;0.30;;;4.60;99.90;;;;;;5053496;28;20210;-68
2021/12/24 14:44:54;;;;;;;0.53;0.53;;;4.50;99.90;;;;;;5054691;28;20243;-68